Time;durP1;ratioP1;P1;durP2;ratioP2;P2;SDS_P1;SDS_P2;PMS_P1;PMS_P2;Temp;Humidity;BMP_temperature;BMP_pressure;BME280_temperature;BME280_humidity;BME280_pressure;Samples;Min_cycle;Max_cycle;Signal;HPM_P1;HPM_P2
2023/09/03 00:00:18;;;;;;;6.40;4.23;;;14.90;55.00;;;;;;5129019;27;46631;-78
2023/09/03 00:02:43;;;;;;;7.37;3.70;;;14.90;55.10;;;;;;5126723;27;46512;-77
2023/09/03 00:05:09;;;;;;;9.50;4.50;;;14.80;55.50;;;;;;5130690;27;45982;-79
2023/09/03 00:07:35;;;;;;;6.23;3.90;;;14.80;56.10;;;;;;5129116;27;46175;-79
2023/09/03 00:10:00;;;;;;;11.67;4.90;;;14.80;55.00;;;;;;5127474;27;46262;-78
2023/09/03 00:12:27;;;;;;;13.23;5.07;;;14.80;56.10;;;;;;5113555;27;45825;-79
2023/09/03 00:14:54;;;;;;;6.60;4.57;;;14.80;56.10;;;;;;5110687;27;46568;-80
2023/09/03 00:17:20;;;;;;;8.53;4.40;;;14.80;56.10;;;;;;5109646;27;49136;-77
2023/09/03 00:19:45;;;;;;;7.33;4.30;;;14.70;55.00;;;;;;5129384;27;46640;-78
2023/09/03 00:22:11;;;;;;;7.33;4.07;;;14.80;57.30;;;;;;5127752;27;45838;-79
2023/09/03 00:24:38;;;;;;;10.53;5.40;;;14.80;56.10;;;;;;5130933;27;46436;-79
2023/09/03 00:27:03;;;;;;;8.17;4.83;;;14.70;56.00;;;;;;5125650;27;48501;-78
2023/09/03 00:29:29;;;;;;;8.83;3.93;;;14.70;56.00;;;;;;5110165;27;46444;-78
2023/09/03 00:31:55;;;;;;;6.90;3.73;;;14.70;55.00;;;;;;5125995;27;46466;-78
2023/09/03 00:34:21;;;;;;;6.67;3.80;;;14.70;56.00;;;;;;5126949;27;46250;-80
2023/09/03 00:36:46;;;;;;;8.97;4.10;;;14.70;56.00;;;;;;5128545;27;48068;-77
2023/09/03 00:39:12;;;;;;;6.80;3.70;;;14.60;55.90;;;;;;5109071;27;46519;-78
2023/09/03 00:41:38;;;;;;;10.27;4.17;;;14.70;55.10;;;;;;5127759;27;46362;-79
2023/09/03 00:44:04;;;;;;;9.00;4.23;;;14.60;55.90;;;;;;5127255;27;46388;-78
2023/09/03 00:46:30;;;;;;;7.53;3.90;;;15.10;56.40;;;;;;5128089;27;47142;-80
2023/09/03 00:48:57;;;;;;;7.93;3.50;;;14.60;55.90;;;;;;5127875;27;46410;-80
2023/09/03 00:51:22;;;;;;;6.30;3.70;;;14.50;55.40;;;;;;5128833;27;46422;-79
2023/09/03 00:53:53;;;;;;;6.10;3.73;;;14.50;56.60;;;;;;5125271;27;46257;-79
2023/09/03 00:56:19;;;;;;;10.00;3.83;;;14.40;56.50;;;;;;5127664;27;47983;-80
2023/09/03 00:58:46;;;;;;;6.30;3.50;;;14.40;56.90;;;;;;5109415;27;46688;-79
2023/09/03 01:01:12;;;;;;;9.10;3.77;;;14.30;56.10;;;;;;5108714;27;46530;-78
2023/09/03 01:03:37;;;;;;;5.03;3.43;;;14.30;57.30;;;;;;5126237;27;46703;-82
2023/09/03 01:06:04;;;;;;;6.43;3.20;;;14.30;57.40;;;;;;5111662;27;47428;-80
2023/09/03 01:08:30;;;;;;;5.23;3.03;;;14.30;57.70;;;;;;5125855;27;46754;-79
2023/09/03 01:11:08;;;;;;;5.10;3.07;;;14.20;56.90;;;;;;5127778;27;46421;-78
2023/09/03 01:13:40;;;;;;;6.43;3.40;;;14.20;57.90;;;;;;5108417;27;46559;-80
2023/09/03 01:16:25;;;;;;;6.93;3.77;;;14.20;57.90;;;;;;5126111;27;46935;-78
2023/09/03 01:18:52;;;;;;;7.03;3.37;;;14.20;57.90;;;;;;5110208;27;46483;-82
2023/09/03 01:21:29;;;;;;;8.03;4.10;;;14.20;56.90;;;;;;5127050;27;46297;-77
2023/09/03 01:24:06;;;;;;;8.63;4.53;;;14.30;57.80;;;;;;5115185;27;46943;-78
2023/09/03 01:26:58;;;;;;;5.77;4.00;;;14.30;57.60;;;;;;5127029;27;47596;-80
2023/09/03 01:29:25;;;;;;;9.70;3.80;;;14.30;57.80;;;;;;5108858;27;46512;-78
2023/09/03 01:31:50;;;;;;;6.40;3.50;;;14.30;56.70;;;;;;5105354;27;46486;-78
2023/09/03 01:34:16;;;;;;;8.40;4.27;;;14.40;57.90;;;;;;5127698;27;46337;-78
2023/09/03 01:36:43;;;;;;;7.73;3.93;;;14.30;57.70;;;;;;5127061;27;46791;-79
2023/09/03 01:39:08;;;;;;;14.23;3.80;;;14.30;57.80;;;;;;5126474;27;46710;-80
2023/09/03 01:41:35;;;;;;;7.80;3.60;;;14.20;56.80;;;;;;5128352;27;46602;-79
2023/09/03 01:44:02;;;;;;;7.00;3.50;;;14.20;57.90;;;;;;5126604;27;46714;-79
2023/09/03 01:46:50;;;;;;;7.03;3.10;;;14.20;58.00;;;;;;5126230;27;47591;-79
2023/09/03 01:49:27;;;;;;;11.27;3.70;;;14.20;58.10;;;;;;5106666;27;46517;-79
2023/09/03 01:52:15;;;;;;;6.10;3.70;;;14.20;57.00;;;;;;5127984;27;45944;-80
2023/09/03 01:54:47;;;;;;;7.00;3.53;;;14.20;58.00;;;;;;5127310;27;46517;-80
2023/09/03 01:57:32;;;;;;;5.10;3.50;;;14.20;59.10;;;;;;5125330;27;46473;-81
2023/09/03 02:00:04;;;;;;;5.87;3.60;;;14.10;57.10;;;;;;5126536;27;46552;-79
2023/09/03 02:02:32;;;;;;;5.73;3.60;;;14.10;58.00;;;;;;5125208;27;46437;-80
2023/09/03 02:04:57;;;;;;;6.93;3.70;;;14.10;57.90;;;;;;5125301;27;46602;-79
2023/09/03 02:07:23;;;;;;;6.07;3.90;;;14.10;58.00;;;;;;5125160;27;47944;-80
2023/09/03 02:09:49;;;;;;;5.10;3.07;;;14.10;57.10;;;;;;5111177;27;46470;-81
2023/09/03 02:12:16;;;;;;;5.37;3.57;;;14.10;58.00;;;;;;5127854;27;46418;-80
2023/09/03 02:14:42;;;;;;;10.60;4.07;;;14.10;58.10;;;;;;5126406;27;46528;-82
2023/09/03 02:17:09;;;;;;;5.13;3.70;;;14.10;58.00;;;;;;5123678;27;46750;-80
2023/09/03 02:19:34;;;;;;;7.90;3.77;;;14.10;57.90;;;;;;5127390;27;46520;-82
2023/09/03 02:22:00;;;;;;;6.07;3.53;;;14.10;56.90;;;;;;5127234;27;46362;-81
2023/09/03 02:24:25;;;;;;;5.33;3.80;;;14.10;57.90;;;;;;5125215;27;45823;-79
2023/09/03 02:26:51;;;;;;;5.83;3.90;;;14.10;57.80;;;;;;5127896;27;46547;-81
2023/09/03 02:29:17;;;;;;;6.40;3.93;;;14.10;57.80;;;;;;5129639;27;46431;-81
2023/09/03 02:31:42;;;;;;;12.30;4.20;;;14.10;56.70;;;;;;5130136;27;46522;-80
2023/09/03 02:34:09;;;;;;;6.77;4.10;;;14.20;57.80;;;;;;5127989;27;45973;-80
2023/09/03 02:36:35;;;;;;;8.10;4.10;;;14.20;57.90;;;;;;5132869;27;47672;-80
2023/09/03 02:39:02;;;;;;;7.90;4.03;;;14.10;57.60;;;;;;5127797;27;46853;-81
2023/09/03 02:41:31;;;;;;;6.97;3.60;;;14.20;57.70;;;;;;5132065;27;46918;-79
2023/09/03 02:44:01;;;;;;;8.63;4.30;;;14.20;57.70;;;;;;5130516;27;46514;-80
2023/09/03 02:46:27;;;;;;;6.10;3.50;;;14.20;57.70;;;;;;5130703;27;46843;-80
2023/09/03 02:48:52;;;;;;;7.60;4.00;;;14.10;57.70;;;;;;5129126;27;46480;-80
2023/09/03 02:51:18;;;;;;;9.70;3.80;;;14.10;57.80;;;;;;5128711;27;46541;-79
2023/09/03 02:53:45;;;;;;;5.87;3.33;;;14.10;57.90;;;;;;5129570;27;46441;-80
2023/09/03 02:56:12;;;;;;;7.40;3.73;;;14.10;58.10;;;;;;5127597;27;47356;-77
2023/09/03 02:58:38;;;;;;;7.87;4.03;;;14.10;58.10;;;;;;5110158;27;47105;-82
2023/09/03 03:01:09;;;;;;;8.53;3.60;;;14.10;58.10;;;;;;5126302;27;46544;-80
2023/09/03 03:03:34;;;;;;;8.83;4.00;;;14.10;58.30;;;;;;5127724;27;46462;-80
2023/09/03 03:06:00;;;;;;;5.70;4.20;;;14.00;58.20;;;;;;5130678;27;46521;-81
2023/09/03 03:08:26;;;;;;;7.53;4.63;;;14.10;58.40;;;;;;5126810;27;47103;-81
2023/09/03 03:10:51;;;;;;;7.50;3.80;;;14.00;58.30;;;;;;5128074;27;46512;-80
2023/09/03 03:13:17;;;;;;;11.90;4.00;;;14.00;58.50;;;;;;5114195;27;46689;-80
2023/09/03 03:15:43;;;;;;;6.47;3.97;;;14.20;58.80;;;;;;5128494;27;46432;-82
2023/09/03 03:18:08;;;;;;;7.47;3.30;;;13.90;59.80;;;;;;5127542;27;46551;-79
2023/09/03 03:20:34;;;;;;;11.30;4.43;;;13.90;58.80;;;;;;5128510;27;46413;-80
2023/09/03 03:23:00;;;;;;;7.60;4.10;;;13.80;58.90;;;;;;5111449;27;46777;-82
2023/09/03 03:25:26;;;;;;;6.17;3.80;;;13.80;59.30;;;;;;5127587;27;46491;-81
2023/09/03 03:27:51;;;;;;;8.63;4.10;;;13.80;59.40;;;;;;5128778;27;46547;-80
2023/09/03 03:30:17;;;;;;;6.93;3.30;;;13.80;59.50;;;;;;5126806;27;46547;-80
2023/09/03 03:32:42;;;;;;;6.93;4.00;;;13.80;59.60;;;;;;5121370;27;46542;-80
2023/09/03 03:35:09;;;;;;;7.40;3.93;;;13.80;59.60;;;;;;5127708;27;46522;-80
2023/09/03 03:37:34;;;;;;;6.00;3.80;;;13.80;59.50;;;;;;5128610;27;46461;-80
2023/09/03 03:40:00;;;;;;;6.10;3.90;;;13.80;58.80;;;;;;5127144;27;46569;-80
2023/09/03 03:42:25;;;;;;;16.30;4.00;;;13.80;59.60;;;;;;5128478;27;46533;-80
2023/09/03 03:44:51;;;;;;;7.73;3.40;;;13.80;59.50;;;;;;5129815;27;47198;-81
2023/09/03 03:47:16;;;;;;;7.47;3.70;;;13.80;59.50;;;;;;5130678;27;46920;-80
2023/09/03 03:49:42;;;;;;;7.63;4.10;;;13.90;58.60;;;;;;5128617;27;47155;-78
2023/09/03 03:52:07;;;;;;;9.13;4.10;;;13.90;59.50;;;;;;5125535;27;45814;-80
2023/09/03 03:54:35;;;;;;;8.00;3.83;;;13.90;59.60;;;;;;5126264;27;46484;-81
2023/09/03 03:57:00;;;;;;;11.10;3.83;;;13.90;59.50;;;;;;5126903;27;46719;-79
2023/09/03 03:59:27;;;;;;;7.73;4.10;;;13.90;59.40;;;;;;5128979;27;46555;-80
2023/09/03 04:01:53;;;;;;;8.70;3.67;;;13.90;58.60;;;;;;5125541;27;46620;-80
2023/09/03 04:04:19;;;;;;;6.23;3.37;;;13.90;59.50;;;;;;5126912;27;46432;-80
2023/09/03 04:06:45;;;;;;;4.87;3.50;;;13.80;59.50;;;;;;5129086;27;46687;-79
2023/09/03 04:09:10;;;;;;;4.90;3.40;;;13.90;59.50;;;;;;5127265;27;46412;-81
2023/09/03 04:11:36;;;;;;;5.40;3.33;;;13.90;58.70;;;;;;5129619;27;46357;-79
2023/09/03 04:14:01;;;;;;;4.43;3.00;;;13.80;59.70;;;;;;5125676;27;46390;-79
2023/09/03 04:16:27;;;;;;;6.00;3.50;;;13.80;59.60;;;;;;5127457;27;46893;-79
2023/09/03 04:18:53;;;;;;;8.80;3.23;;;13.80;59.70;;;;;;5126186;27;46544;-78
2023/09/03 04:21:18;;;;;;;6.27;3.10;;;13.80;59.80;;;;;;5127860;27;46648;-81
2023/09/03 04:23:44;;;;;;;5.93;3.50;;;13.80;59.90;;;;;;5128228;27;46443;-81
2023/09/03 04:26:11;;;;;;;10.73;3.57;;;13.90;60.00;;;;;;5126860;27;46451;-81
2023/09/03 04:28:36;;;;;;;14.03;3.50;;;13.80;60.00;;;;;;5111952;27;46849;-83
2023/09/03 04:31:08;;;;;;;5.37;3.50;;;13.70;60.00;;;;;;5129684;27;46913;-81
2023/09/03 04:33:35;;;;;;;4.50;2.83;;;13.70;60.00;;;;;;5113635;27;49479;-81
2023/09/03 04:36:02;;;;;;;10.57;3.70;;;13.80;60.10;;;;;;5111795;27;47096;-82
2023/09/03 04:38:28;;;;;;;12.90;3.93;;;13.70;60.00;;;;;;5110882;27;46441;-80
2023/09/03 04:40:55;;;;;;;5.90;3.50;;;13.80;60.00;;;;;;5123178;27;46365;-79
2023/09/03 04:43:21;;;;;;;12.07;3.93;;;13.80;59.90;;;;;;5113515;27;48223;-79
2023/09/03 04:45:48;;;;;;;14.23;3.60;;;13.80;59.80;;;;;;5132337;27;46421;-77
2023/09/03 04:48:14;;;;;;;7.60;3.83;;;13.80;59.90;;;;;;5127439;27;46556;-81
2023/09/03 04:50:40;;;;;;;6.43;3.50;;;13.90;59.70;;;;;;5127114;27;46450;-83
2023/09/03 04:53:06;;;;;;;7.87;3.20;;;14.00;59.70;;;;;;5127874;27;47047;-80
2023/09/03 04:55:33;;;;;;;9.60;3.67;;;14.00;59.50;;;;;;5128935;27;46813;-80
2023/09/03 04:57:59;;;;;;;6.63;3.80;;;14.00;59.50;;;;;;5128063;27;46927;-82
2023/09/03 05:00:24;;;;;;;5.23;3.80;;;14.10;59.40;;;;;;5107404;27;45891;-80
2023/09/03 05:02:50;;;;;;;6.80;3.43;;;14.10;59.20;;;;;;5128202;27;46484;-81
2023/09/03 05:05:17;;;;;;;6.07;3.07;;;14.20;59.20;;;;;;5125201;27;46676;-79
2023/09/03 05:07:43;;;;;;;10.63;4.17;;;14.20;58.70;;;;;;5128871;27;46525;-80
2023/09/03 05:10:09;;;;;;;8.97;3.67;;;14.50;57.30;;;;;;5124760;27;46738;-81
2023/09/03 05:12:34;;;;;;;7.70;3.80;;;14.50;58.20;;;;;;5124721;27;47628;-79
2023/09/03 05:15:00;;;;;;;7.10;3.47;;;14.50;57.80;;;;;;5125998;27;46440;-78
2023/09/03 05:17:26;;;;;;;6.13;3.30;;;14.70;58.00;;;;;;5109789;27;46529;-77
2023/09/03 05:19:51;;;;;;;5.60;3.50;;;14.50;58.10;;;;;;5125517;27;47041;-81
2023/09/03 05:22:17;;;;;;;6.17;3.63;;;14.50;59.10;;;;;;5125451;27;46444;-80
2023/09/03 05:24:42;;;;;;;6.90;3.93;;;14.50;59.60;;;;;;5127618;27;46957;-80
2023/09/03 05:27:09;;;;;;;10.47;3.90;;;14.60;59.40;;;;;;5127721;27;46429;-80
2023/09/03 05:29:34;;;;;;;6.43;4.00;;;14.60;59.30;;;;;;5126735;27;46500;-79
2023/09/03 05:32:00;;;;;;;7.90;3.70;;;14.80;57.50;;;;;;5116223;27;48382;-82
2023/09/03 05:34:26;;;;;;;8.30;3.70;;;15.00;58.20;;;;;;5109804;27;46556;-79
2023/09/03 05:36:51;;;;;;;9.23;3.80;;;15.10;57.60;;;;;;5112341;27;46473;-81
2023/09/03 05:39:17;;;;;;;6.50;3.67;;;15.20;57.50;;;;;;5127564;27;46578;-78
2023/09/03 05:41:42;;;;;;;12.00;4.37;;;15.30;55.50;;;;;;5121354;27;47981;-80
2023/09/03 05:44:11;;;;;;;17.03;3.90;;;15.50;56.70;;;;;;5127238;27;46819;-80
2023/09/03 05:46:36;;;;;;;11.50;4.00;;;15.60;56.80;;;;;;5130316;27;46475;-82
2023/09/03 05:49:02;;;;;;;5.60;3.47;;;15.80;56.30;;;;;;5126192;27;46852;-80
2023/09/03 05:51:28;;;;;;;5.50;3.60;;;16.00;54.50;;;;;;5125683;27;46491;-81
2023/09/03 05:53:53;;;;;;;5.30;3.60;;;16.10;55.10;;;;;;5111020;27;46725;-82
2023/09/03 05:56:20;;;;;;;6.93;3.70;;;16.30;54.70;;;;;;5127426;27;46424;-80
2023/09/03 05:58:45;;;;;;;7.90;3.80;;;16.60;54.20;;;;;;5127529;27;46512;-81
2023/09/03 06:01:11;;;;;;;4.53;3.10;;;16.90;53.80;;;;;;5125000;27;46794;-81
2023/09/03 06:03:40;;;;;;;7.90;3.93;;;17.10;53.30;;;;;;5124544;27;46334;-83
2023/09/03 06:06:08;;;;;;;6.30;3.70;;;17.40;52.80;;;;;;5129591;27;46524;-79
2023/09/03 06:08:35;;;;;;;6.00;3.57;;;17.80;52.10;;;;;;5127809;27;46634;-81
2023/09/03 06:11:01;;;;;;;8.07;4.17;;;18.00;51.20;;;;;;5126742;27;46548;-79
2023/09/03 06:13:27;;;;;;;4.33;2.63;;;18.10;50.50;;;;;;5125641;27;46454;-80
2023/09/03 06:15:53;;;;;;;6.27;3.80;;;18.20;50.10;;;;;;5126902;27;47012;-81
2023/09/03 06:18:19;;;;;;;5.23;3.80;;;18.20;50.00;;;;;;5125049;27;46958;-83
2023/09/03 06:20:45;;;;;;;5.73;3.23;;;;;;;;;;5128615;27;47541;-81
2023/09/03 06:23:15;;;;;;;7.20;3.67;;;18.30;49.60;;;;;;5102298;27;46783;-78
2023/09/03 06:25:42;;;;;;;6.23;4.10;;;18.50;50.60;;;;;;5120567;27;47105;-79
2023/09/03 06:28:07;;;;;;;7.80;3.60;;;18.90;49.60;;;;;;5108703;27;46755;-79
2023/09/03 06:30:33;;;;;;;8.70;3.20;;;19.10;46.20;;;;;;5123290;27;46458;-80
2023/09/03 06:33:01;;;;;;;6.00;3.60;;;19.10;47.00;;;;;;5106081;27;46970;-78
2023/09/03 06:35:27;;;;;;;6.17;4.23;;;19.10;46.80;;;;;;5129088;27;46507;-79
2023/09/03 06:37:52;;;;;;;6.13;3.70;;;19.20;46.90;;;;;;5104120;27;46500;-80
2023/09/03 06:40:18;;;;;;;8.03;3.50;;;19.30;47.00;;;;;;5122922;27;47198;-79
2023/09/03 06:42:43;;;;;;;6.37;3.40;;;19.40;47.20;;;;;;5105282;27;46840;-80
2023/09/03 06:45:09;;;;;;;11.43;3.83;;;19.50;47.20;;;;;;5114254;27;46583;-81
2023/09/03 06:47:35;;;;;;;5.23;3.30;;;19.50;47.20;;;;;;5122667;27;46523;-78
2023/09/03 06:50:01;;;;;;;8.87;4.50;;;19.60;46.20;;;;;;5107100;27;47473;-81
2023/09/03 06:52:26;;;;;;;6.83;4.07;;;19.70;47.30;;;;;;5103802;27;46815;-81
2023/09/03 06:54:52;;;;;;;7.40;3.73;;;19.80;46.90;;;;;;5109500;27;46504;-80
2023/09/03 06:57:20;;;;;;;6.07;4.03;;;19.90;46.50;;;;;;5125122;27;46226;-80
2023/09/03 06:59:45;;;;;;;7.40;4.07;;;20.20;44.80;;;;;;5124727;27;46460;-78
2023/09/03 07:02:11;;;;;;;7.77;4.30;;;20.20;45.80;;;;;;5122740;27;46379;-79
2023/09/03 07:04:36;;;;;;;9.20;4.43;;;20.50;45.00;;;;;;5122615;27;46484;-79
2023/09/03 07:07:03;;;;;;;10.80;4.30;;;20.80;44.10;;;;;;5126676;27;46888;-81
2023/09/03 07:09:31;;;;;;;8.70;4.50;;;20.90;43.40;;;;;;5103552;27;48212;-80
2023/09/03 07:11:56;;;;;;;8.83;4.70;;;21.10;41.60;;;;;;5120034;27;46457;-83
2023/09/03 07:14:22;;;;;;;6.40;4.93;;;21.30;42.00;;;;;;5114812;27;46379;-78
2023/09/03 07:16:48;;;;;;;6.93;4.70;;;21.50;42.00;;;;;;5127027;27;46461;-80
2023/09/03 07:19:13;;;;;;;9.40;4.60;;;21.50;41.60;;;;;;5130265;27;46988;-79
2023/09/03 07:21:39;;;;;;;6.30;4.20;;;21.60;40.00;;;;;;5129076;27;46553;-80
2023/09/03 07:24:05;;;;;;;6.90;4.63;;;21.60;41.30;;;;;;5131342;27;46630;-79
2023/09/03 07:26:30;;;;;;;11.10;4.80;;;21.70;41.20;;;;;;5128051;27;46455;-79
2023/09/03 07:28:56;;;;;;;10.87;5.17;;;21.60;41.10;;;;;;5128793;27;48580;-79
2023/09/03 07:31:21;;;;;;;9.63;5.30;;;21.80;40.50;;;;;;5126419;27;46673;-80
2023/09/03 07:33:48;;;;;;;11.47;5.70;;;22.10;39.90;;;;;;5129550;27;46775;-79
2023/09/03 07:36:13;;;;;;;5.93;4.20;;;22.20;38.90;;;;;;5132733;27;46504;-81
2023/09/03 07:38:39;;;;;;;10.63;5.60;;;22.40;38.70;;;;;;5129360;27;46178;-80
2023/09/03 07:41:05;;;;;;;10.20;5.17;;;22.40;38.10;;;;;;5130052;27;46986;-79
2023/09/03 07:43:30;;;;;;;7.60;5.10;;;22.50;38.20;;;;;;5133025;27;46475;-80
2023/09/03 07:45:56;;;;;;;8.60;4.97;;;22.50;38.00;;;;;;5132250;27;46906;-79
2023/09/03 07:48:22;;;;;;;7.00;4.50;;;22.70;37.80;;;;;;5130784;27;46694;-81
2023/09/03 07:50:49;;;;;;;7.93;5.03;;;22.80;36.60;;;;;;5130073;27;46568;-79
2023/09/03 07:53:14;;;;;;;8.87;5.53;;;23.00;36.80;;;;;;5131390;27;46527;-79
2023/09/03 07:55:40;;;;;;;11.20;4.80;;;23.20;36.50;;;;;;5127295;27;46690;-80
2023/09/03 07:58:06;;;;;;;7.53;4.70;;;23.50;35.80;;;;;;5108140;27;48201;-80
2023/09/03 08:00:32;;;;;;;8.93;4.70;;;23.60;34.70;;;;;;5114745;27;46924;-80
2023/09/03 08:02:57;;;;;;;6.90;4.90;;;23.60;34.20;;;;;;5128566;27;46486;-79
2023/09/03 08:05:23;;;;;;;6.77;4.50;;;23.70;33.90;;;;;;5131440;27;46488;-83
2023/09/03 08:07:49;;;;;;;9.73;4.30;;;23.50;34.20;;;;;;5125738;27;46515;-79
2023/09/03 08:10:15;;;;;;;7.93;4.83;;;23.50;34.30;;;;;;5129531;27;46494;-82
2023/09/03 08:12:40;;;;;;;8.13;5.17;;;23.40;33.90;;;;;;5129504;27;46607;-79
2023/09/03 08:15:07;;;;;;;7.73;4.30;;;23.40;34.20;;;;;;5130341;27;46492;-78
2023/09/03 08:17:32;;;;;;;8.30;4.20;;;23.40;33.90;;;;;;5129296;27;47383;-79
2023/09/03 08:19:58;;;;;;;13.67;4.50;;;23.00;33.60;;;;;;5129538;27;47282;-80
2023/09/03 08:22:24;;;;;;;5.70;4.03;;;23.00;34.50;;;;;;5127840;27;46461;-81
2023/09/03 08:24:49;;;;;;;7.87;4.00;;;23.30;33.90;;;;;;5127031;27;46499;-80
2023/09/03 08:27:15;;;;;;;7.97;4.70;;;23.30;33.80;;;;;;5130483;27;46365;-79
2023/09/03 08:29:40;;;;;;;6.47;3.80;;;23.60;33.30;;;;;;5127130;27;46482;-80
2023/09/03 08:32:06;;;;;;;7.93;4.43;;;23.50;32.00;;;;;;5126356;27;46470;-79
2023/09/03 08:34:32;;;;;;;6.57;4.43;;;23.60;32.90;;;;;;5129472;27;46607;-79
2023/09/03 08:36:57;;;;;;;6.30;3.70;;;23.70;32.50;;;;;;5128951;27;47678;-79
2023/09/03 08:39:23;;;;;;;5.50;4.00;;;23.70;32.30;;;;;;5122202;27;47075;-78
2023/09/03 08:41:49;;;;;;;8.50;4.40;;;24.00;30.10;;;;;;5117109;27;47356;-79
2023/09/03 08:44:35;;;;;;;7.87;3.80;;;24.30;29.30;;;;;;5098190;27;46675;-79
2023/09/03 08:47:04;;;;;;;6.37;3.70;;;24.60;28.90;;;;;;5101189;27;48362;-79
2023/09/03 08:49:31;;;;;;;6.40;3.33;;;24.80;28.30;;;;;;5109332;27;47117;-80
2023/09/03 08:51:58;;;;;;;5.73;3.63;;;24.80;27.80;;;;;;5120100;27;46190;-80
2023/09/03 08:54:25;;;;;;;6.73;3.43;;;24.60;27.60;;;;;;5118234;27;46494;-80
2023/09/03 08:56:51;;;;;;;14.33;3.60;;;24.60;28.70;;;;;;5133026;27;48166;-83
2023/09/03 08:59:16;;;;;;;6.60;3.57;;;24.70;28.30;;;;;;5107367;27;45882;-80
2023/09/03 09:01:44;;;;;;;5.43;3.40;;;24.80;26.60;;;;;;5112298;27;46578;-79
2023/09/03 09:04:11;;;;;;;5.83;3.03;;;24.80;27.40;;;;;;5111557;27;46929;-79
2023/09/03 09:06:39;;;;;;;5.57;3.20;;;24.80;26.90;;;;;;5129028;27;47208;-78
2023/09/03 09:09:05;;;;;;;7.90;3.63;;;24.80;26.70;;;;;;5126935;27;46829;-78
2023/09/03 09:11:38;;;;;;;5.63;2.97;;;24.90;26.20;;;;;;5126153;27;47085;-79
2023/09/03 09:14:11;;;;;;;5.93;2.90;;;24.90;25.90;;;;;;5127199;27;46504;-79
2023/09/03 09:16:37;;;;;;;7.03;3.17;;;25.00;25.60;;;;;;5128184;27;47073;-78
2023/09/03 09:19:02;;;;;;;4.80;3.20;;;25.00;25.10;;;;;;5126891;27;46357;-81
2023/09/03 09:21:31;;;;;;;6.80;2.73;;;25.10;23.60;;;;;;5126096;27;46460;-79
2023/09/03 09:24:03;;;;;;;4.80;2.87;;;25.20;24.40;;;;;;5128336;27;46411;-81
2023/09/03 09:26:32;;;;;;;4.20;2.70;;;25.90;23.90;;;;;;5128879;27;46465;-82
2023/09/03 09:29:00;;;;;;;5.43;2.70;;;25.60;23.20;;;;;;5107910;27;46481;-81
2023/09/03 09:31:30;;;;;;;5.20;2.70;;;25.30;22.50;;;;;;5115177;27;46577;-79
2023/09/03 09:33:57;;;;;;;4.57;2.50;;;25.40;23.20;;;;;;5126016;27;46863;-82
2023/09/03 09:36:22;;;;;;;4.27;2.17;;;25.20;22.90;;;;;;5125108;27;46481;-79
2023/09/03 09:38:48;;;;;;;3.87;1.97;;;25.20;23.40;;;;;;5128347;27;45769;-81
2023/09/03 09:41:29;;;;;;;6.03;1.90;;;25.00;22.40;;;;;;5128076;27;46434;-81
2023/09/03 09:43:54;;;;;;;2.90;1.67;;;25.00;23.40;;;;;;5108821;27;46953;-80
2023/09/03 09:46:27;;;;;;;5.47;2.23;;;25.10;22.50;;;;;;5126867;27;46972;-80
2023/09/03 09:49:00;;;;;;;4.77;2.33;;;25.20;22.10;;;;;;5128226;27;46924;-82
2023/09/03 09:51:27;;;;;;;4.60;2.07;;;25.00;21.00;;;;;;5129573;27;46641;-80
2023/09/03 09:54:01;;;;;;;3.83;1.83;;;25.00;22.00;;;;;;5112901;27;46464;-81
2023/09/03 09:56:37;;;;;;;7.07;2.00;;;25.40;21.40;;;;;;5125746;27;47233;-80
2023/09/03 09:59:03;;;;;;;4.30;2.17;;;25.50;20.80;;;;;;5111278;27;46449;-81
2023/09/03 10:01:43;;;;;;;5.47;2.03;;;25.50;20.40;;;;;;5128127;27;46532;-80
2023/09/03 10:04:08;;;;;;;4.40;1.70;;;25.40;21.10;;;;;;5109300;27;46453;-82
2023/09/03 10:06:35;;;;;;;3.37;1.90;;;25.50;20.90;;;;;;5107386;27;48118;-83
2023/09/03 10:09:01;;;;;;;4.17;2.00;;;25.80;20.10;;;;;;5126309;27;46560;-79
2023/09/03 10:11:26;;;;;;;5.97;2.13;;;26.20;17.60;;;;;;5127095;27;46471;-82
2023/09/03 10:13:52;;;;;;;5.83;1.93;;;26.40;18.70;;;;;;5128108;27;46483;-82
2023/09/03 10:16:21;;;;;;;7.20;2.30;;;26.40;18.60;;;;;;5127190;27;46480;-79
2023/09/03 10:18:49;;;;;;;3.97;2.30;;;26.30;18.40;;;;;;5128782;27;46890;-80
2023/09/03 10:21:23;;;;;;;5.63;2.50;;;26.00;17.70;;;;;;5139007;27;46922;-81
2023/09/03 10:23:50;;;;;;;6.70;2.40;;;25.90;18.90;;;;;;5130581;27;46527;-81
2023/09/03 10:26:21;;;;;;;5.40;2.20;;;26.20;18.70;;;;;;5131611;27;46600;-79
2023/09/03 10:28:49;;;;;;;4.10;2.20;;;26.20;18.50;;;;;;5127919;27;46412;-80
2023/09/03 10:31:15;;;;;;;7.13;2.90;;;26.20;17.90;;;;;;5129872;27;46525;-82
2023/09/03 10:33:41;;;;;;;6.43;2.40;;;26.00;19.20;;;;;;5103951;27;46476;-80
2023/09/03 10:36:11;;;;;;;4.10;2.27;;;26.20;19.00;;;;;;5124172;27;48146;-83
2023/09/03 10:38:37;;;;;;;3.90;2.33;;;26.00;17.80;;;;;;5126645;27;47040;-80
2023/09/03 10:41:25;;;;;;;3.80;2.40;;;25.60;18.60;;;;;;5110884;27;46621;-79
2023/09/03 10:43:53;;;;;;;4.80;2.20;;;25.70;19.40;;;;;;5129490;27;46549;-80
2023/09/03 10:46:21;;;;;;;3.33;1.77;;;25.90;19.10;;;;;;5106886;27;48303;-80
2023/09/03 10:49:05;;;;;;;3.00;1.90;;;25.90;18.80;;;;;;5107375;27;46735;-80
2023/09/03 10:51:32;;;;;;;3.70;2.10;;;26.30;17.60;;;;;;5130115;27;46443;-78
2023/09/03 10:54:16;;;;;;;4.20;2.07;;;26.20;18.70;;;;;;5128655;27;46875;-79
2023/09/03 10:57:04;;;;;;;3.00;1.80;;;26.10;18.50;;;;;;5127686;27;46679;-77
2023/09/03 10:59:49;;;;;;;5.50;2.07;;;;;;;;;;5111953;27;46881;-80
2023/09/03 11:02:28;;;;;;;3.70;2.30;;;26.10;17.30;;;;;;5127848;27;46504;-79
2023/09/03 11:05:22;;;;;;;3.50;1.93;;;26.40;17.80;;;;;;5128778;27;46790;-76
2023/09/03 11:08:34;;;;;;;5.23;2.17;;;26.60;17.70;;;;;;5125729;27;46421;-77
2023/09/03 11:11:01;;;;;;;4.20;2.53;;;26.70;16.50;;;;;;5124945;27;46417;-79
2023/09/03 11:13:27;;;;;;;3.67;2.00;;;26.80;17.50;;;;;;5109029;27;46998;-81
2023/09/03 11:15:57;;;;;;;3.50;2.00;;;26.90;17.30;;;;;;5109258;27;46557;-79
2023/09/03 11:18:26;;;;;;;4.33;2.10;;;27.20;16.60;;;;;;5129997;27;46527;-83
2023/09/03 11:20:53;;;;;;;3.20;1.83;;;26.80;14.90;;;;;;5131125;27;47101;-81
2023/09/03 11:23:19;;;;;;;4.47;2.27;;;26.60;15.90;;;;;;5128149;27;46464;-80
2023/09/03 11:25:45;;;;;;;3.67;2.00;;;26.40;16.70;;;;;;5127951;27;46430;-79
2023/09/03 11:28:11;;;;;;;4.97;2.07;;;26.40;16.30;;;;;;5109016;27;48389;-81
2023/09/03 11:30:42;;;;;;;5.70;2.33;;;26.30;15.70;;;;;;5128815;27;47325;-81
2023/09/03 11:33:11;;;;;;;5.20;2.30;;;26.30;16.50;;;;;;5102771;27;47168;-81
2023/09/03 11:35:44;;;;;;;3.83;2.17;;;26.30;16.00;;;;;;5123784;27;46459;-84
2023/09/03 11:38:10;;;;;;;3.30;1.73;;;26.40;16.60;;;;;;5130832;27;46469;-81
2023/09/03 11:40:35;;;;;;;3.30;2.00;;;26.70;14.90;;;;;;5129806;27;46393;-78
2023/09/03 11:43:01;;;;;;;3.60;1.90;;;26.70;15.80;;;;;;5114960;27;46129;-80
2023/09/03 11:45:30;;;;;;;3.97;2.00;;;26.70;14.90;;;;;;5130072;27;46916;-83
2023/09/03 11:47:55;;;;;;;4.80;2.07;;;26.70;15.80;;;;;;5115261;27;46793;-79
2023/09/03 11:50:21;;;;;;;3.30;1.73;;;27.10;14.40;;;;;;5116552;27;46752;-83
2023/09/03 11:52:54;;;;;;;3.60;1.80;;;27.10;15.10;;;;;;5129782;27;47000;-81
2023/09/03 11:55:22;;;;;;;4.77;2.10;;;27.40;14.70;;;;;;5132478;27;46361;-81
2023/09/03 11:57:48;;;;;;;3.00;1.80;;;27.70;14.30;;;;;;5129544;27;46502;-81
2023/09/03 12:00:15;;;;;;;9.30;1.83;;;27.40;13.50;;;;;;5109605;27;46741;-82
2023/09/03 12:02:42;;;;;;;4.27;1.87;;;27.30;14.30;;;;;;5133553;27;47030;-80
2023/09/03 12:05:09;;;;;;;4.40;1.70;;;27.10;14.50;;;;;;5132533;27;46639;-85
2023/09/03 12:07:35;;;;;;;4.77;1.73;;;27.30;14.30;;;;;;5115891;27;47973;-83
2023/09/03 12:10:01;;;;;;;2.63;1.57;;;26.90;13.70;;;;;;5114548;27;46353;-83
2023/09/03 12:12:27;;;;;;;4.07;1.50;;;26.90;14.40;;;;;;5117702;27;46555;-82
2023/09/03 12:14:53;;;;;;;3.40;1.70;;;26.60;13.40;;;;;;5131521;27;48057;-83
2023/09/03 12:17:25;;;;;;;3.33;1.60;;;26.40;14.30;;;;;;5131155;27;46164;-82
2023/09/03 12:19:51;;;;;;;4.50;1.70;;;26.50;13.00;;;;;;5115880;27;47062;-81
2023/09/03 12:22:18;;;;;;;3.43;1.60;;;26.50;13.80;;;;;;5114774;27;46469;-79
2023/09/03 12:24:46;;;;;;;3.83;1.70;;;26.70;13.30;;;;;;5129956;27;46523;-84
2023/09/03 12:27:11;;;;;;;2.87;1.60;;;26.50;13.30;;;;;;5111141;27;47290;-82
2023/09/03 12:29:39;;;;;;;8.10;1.97;;;26.60;13.30;;;;;;5132246;27;46351;-79
2023/09/03 12:32:06;;;;;;;3.07;1.70;;;26.60;11.60;;;;;;5114130;27;46519;-82
2023/09/03 12:34:33;;;;;;;3.07;1.40;;;26.60;12.40;;;;;;5129183;27;46524;-83
2023/09/03 12:36:59;;;;;;;4.10;1.87;;;27.40;10.70;;;;;;5130051;27;46529;-81
2023/09/03 12:39:35;;;;;;;2.90;1.60;;;27.30;11.30;;;;;;5134585;27;46444;-80
2023/09/03 12:42:02;;;;;;;3.43;1.70;;;27.60;9.80;;;;;;5132735;27;47007;-79
2023/09/03 12:44:28;;;;;;;2.70;1.43;;;27.60;10.60;;;;;;5132108;27;47011;-80
2023/09/03 12:46:54;;;;;;;3.97;1.90;;;27.20;10.10;;;;;;5131443;27;47271;-82